createdAt,value
2022-11-05T00:01:19.463Z,90.84
2022-11-05T00:04:06.256Z,90.63
2022-11-05T00:06:52.952Z,90.44
2022-11-05T00:09:29.860Z,90.74
2022-11-05T00:12:22.171Z,90.73
2022-11-05T00:15:08.705Z,90.60
2022-11-05T00:17:36.928Z,90.73
2022-11-05T00:20:06.506Z,90.67
2022-11-05T00:22:53.062Z,90.67
2022-11-05T00:25:22.157Z,90.79
2022-11-05T00:27:52.340Z,90.80
2022-11-05T00:30:24.286Z,90.78
2022-11-05T00:32:53.368Z,90.84
2022-11-05T00:35:22.602Z,90.94
2022-11-05T00:37:53.573Z,91.07
2022-11-05T00:40:21.423Z,91.15
2022-11-05T00:43:08.286Z,91.57
2022-11-05T00:45:37.829Z,91.42
2022-11-05T00:48:24.749Z,91.61
2022-11-05T00:50:52.705Z,92.09
2022-11-05T00:53:20.695Z,92.42
2022-11-05T00:55:48.599Z,92.60
2022-11-05T00:58:19.055Z,92.64
2022-11-05T01:00:52.635Z,92.72
2022-11-05T01:03:24.469Z,93.07
2022-11-05T01:05:55.912Z,93.27
2022-11-05T01:08:26.805Z,93.20
2022-11-05T01:10:57.779Z,93.43
2022-11-05T01:13:30.257Z,93.76
2022-11-05T01:15:58.154Z,93.94
2022-11-05T01:18:26.066Z,93.81
2022-11-05T01:20:54.027Z,93.82
2022-11-05T01:23:22.212Z,93.60
2022-11-05T01:25:50.367Z,93.94
2022-11-05T01:28:18.309Z,93.92
2022-11-05T01:30:46.214Z,93.94
2022-11-05T01:33:14.347Z,93.77
2022-11-05T01:35:42.662Z,93.63
2022-11-05T01:38:10.641Z,93.55
2022-11-05T01:40:42.632Z,93.52
2022-11-05T01:43:16.070Z,93.31
2022-11-05T01:45:47.895Z,93.44
2022-11-05T01:48:23.976Z,93.45
2022-11-05T01:51:01.340Z,93.28
2022-11-05T01:53:49.926Z,93.08
2022-11-05T01:56:24.901Z,92.97
2022-11-05T01:58:57.956Z,93.19
2022-11-05T02:01:26.128Z,93.31
2022-11-05T02:03:59.801Z,93.38
2022-11-05T02:06:30.417Z,93.54
2022-11-05T02:09:13.405Z,93.14
2022-11-05T02:11:41.426Z,93.18
2022-11-05T02:14:09.453Z,92.98
2022-11-05T02:16:40.431Z,92.72
2022-11-05T02:19:23.453Z,92.91
2022-11-05T02:22:08.994Z,92.80
2022-11-05T02:24:45.927Z,92.52
2022-11-05T02:27:29.524Z,92.20
2022-11-05T02:30:03.654Z,92.19
2022-11-05T02:32:40.862Z,92.21
2022-11-05T02:35:35.206Z,92.15
2022-11-05T02:38:07.330Z,92.00
2022-11-05T02:40:54.185Z,92.01
2022-11-05T02:43:51.777Z,92.01
2022-11-05T02:46:29.315Z,92.09
2022-11-05T02:49:13.388Z,92.08
2022-11-05T02:51:55.607Z,92.20
2022-11-05T02:54:35.359Z,92.33
2022-11-05T02:57:04.938Z,92.39
2022-11-05T02:59:32.854Z,92.49
2022-11-05T03:02:26.690Z,92.57
2022-11-05T03:04:54.890Z,92.68
2022-11-05T03:07:44.623Z,92.85
2022-11-05T03:10:43.330Z,92.83
2022-11-05T03:13:22.593Z,92.84
2022-11-05T03:15:55.713Z,93.03
2022-11-05T03:18:43.374Z,93.07
2022-11-05T03:21:37.657Z,93.09
2022-11-05T03:24:34.266Z,93.18
2022-11-05T03:27:13.568Z,93.14
2022-11-05T03:29:49.147Z,93.59
2022-11-05T03:32:20.744Z,93.65
2022-11-05T03:34:56.797Z,93.72
2022-11-05T03:37:28.704Z,93.75
2022-11-05T03:40:00.515Z,93.61
2022-11-05T03:42:34.673Z,93.66
2022-11-05T03:45:08.693Z,93.43
2022-11-05T03:47:41.177Z,93.15
2022-11-05T03:50:59.892Z,93.31
2022-11-05T03:53:32.298Z,93.33
2022-11-05T03:56:10.634Z,93.16
2022-11-05T03:58:44.204Z,92.96
2022-11-05T04:01:12.597Z,92.86
2022-11-05T04:03:40.495Z,92.89
2022-11-05T04:06:29.223Z,92.99
2022-11-05T04:09:15.854Z,93.03
2022-11-05T04:12:02.311Z,93.00
2022-11-05T04:14:31.163Z,92.88
2022-11-05T04:17:09.734Z,93.16
2022-11-05T04:20:01.980Z,93.33
2022-11-05T04:22:54.032Z,93.09
2022-11-05T04:25:22.839Z,93.19
2022-11-05T04:27:51.628Z,93.29
2022-11-05T04:30:20.590Z,93.13
2022-11-05T04:32:58.691Z,92.94
2022-11-05T04:35:28.987Z,92.74
2022-11-05T04:37:57.078Z,92.56
2022-11-05T04:40:25.944Z,92.36
2022-11-05T04:42:55.681Z,92.35
2022-11-05T04:45:25.445Z,92.40
2022-11-05T04:47:53.474Z,92.45
2022-11-05T04:50:21.912Z,92.53
2022-11-05T04:52:49.867Z,92.50
2022-11-05T04:55:18.033Z,92.51
2022-11-05T04:57:51.298Z,92.91
2022-11-05T05:00:20.891Z,92.98
2022-11-05T05:02:49.414Z,93.02
2022-11-05T05:05:17.779Z,93.24
2022-11-05T05:07:45.757Z,93.91
2022-11-05T05:10:13.634Z,94.06
2022-11-05T05:12:41.667Z,94.27
2022-11-05T05:15:09.723Z,94.29
2022-11-05T05:17:37.687Z,94.09
2022-11-05T05:20:24.502Z,94.14
2022-11-05T05:22:55.778Z,93.99
2022-11-05T05:25:23.851Z,94.18
2022-11-05T05:27:51.945Z,94.13
2022-11-05T05:30:19.869Z,94.42
2022-11-05T05:32:47.743Z,94.39
2022-11-05T05:35:16.040Z,94.38
2022-11-05T05:37:44.345Z,94.36
2022-11-05T05:40:12.244Z,94.59
2022-11-05T05:42:43.105Z,94.35
2022-11-05T05:45:12.792Z,94.41
2022-11-05T05:47:40.675Z,94.40
2022-11-05T05:50:08.681Z,94.42
2022-11-05T05:52:36.553Z,94.15
2022-11-05T05:55:04.854Z,93.64
2022-11-05T05:57:34.151Z,93.54
2022-11-05T06:00:02.145Z,93.83
2022-11-05T06:02:40.057Z,94.18
2022-11-05T06:05:08.407Z,94.11
2022-11-05T06:07:37.556Z,94.19
2022-11-05T06:10:07.238Z,94.28
2022-11-05T06:12:35.304Z,94.12
2022-11-05T06:15:03.986Z,93.87
2022-11-05T06:17:33.077Z,93.47
2022-11-05T06:20:01.041Z,93.24
2022-11-05T06:22:28.918Z,93.42
2022-11-05T06:24:56.754Z,93.68
2022-11-05T06:27:24.729Z,93.86
2022-11-05T06:29:52.561Z,93.60
2022-11-05T06:32:20.426Z,93.32
2022-11-05T06:34:48.544Z,93.06
2022-11-05T06:37:16.526Z,92.83
2022-11-05T06:39:44.686Z,92.59
2022-11-05T06:42:18.488Z,92.24
2022-11-05T06:44:47.269Z,91.83
2022-11-05T06:47:15.124Z,91.56
2022-11-05T06:49:43.009Z,91.60
2022-11-05T06:52:11.184Z,91.93
2022-11-05T06:54:40.185Z,92.10
2022-11-05T06:57:12.416Z,92.14
2022-11-05T06:59:40.758Z,92.12
2022-11-05T07:02:12.644Z,91.98
2022-11-05T07:04:40.567Z,92.01
2022-11-05T07:07:08.513Z,91.98
2022-11-05T07:09:42.678Z,91.83
2022-11-05T07:12:10.562Z,92.08
2022-11-05T07:14:38.438Z,92.34
2022-11-05T07:17:06.349Z,92.32
2022-11-05T07:19:34.311Z,92.25
2022-11-05T07:22:02.256Z,91.95
2022-11-05T07:24:30.193Z,91.68
2022-11-05T07:26:58.262Z,91.31
2022-11-05T07:29:26.137Z,90.25
2022-11-05T07:31:54.015Z,89.84
2022-11-05T07:34:21.886Z,90.21
2022-11-05T07:36:49.828Z,90.61
2022-11-05T07:39:17.728Z,91.15
2022-11-05T07:41:45.642Z,91.30
2022-11-05T07:44:14.481Z,91.29
2022-11-05T07:46:42.547Z,91.35
2022-11-05T07:49:10.480Z,90.99
2022-11-05T07:51:38.440Z,91.00
2022-11-05T07:54:06.456Z,90.79
2022-11-05T07:56:34.447Z,90.67
2022-11-05T07:59:02.696Z,90.58
2022-11-05T08:01:30.863Z,90.75
2022-11-05T08:03:58.977Z,90.71
2022-11-05T08:06:26.846Z,90.32
2022-11-05T08:08:54.797Z,90.10
2022-11-05T08:11:22.707Z,89.76
2022-11-05T08:13:50.571Z,89.55
2022-11-05T08:16:18.525Z,89.55
2022-11-05T08:18:46.995Z,89.58
2022-11-05T08:21:15.015Z,89.72
2022-11-05T08:23:43.081Z,89.74
2022-11-05T08:26:10.952Z,89.43
2022-11-05T08:28:39.001Z,89.06
2022-11-05T08:31:06.877Z,88.55
2022-11-05T08:33:35.071Z,88.52
2022-11-05T08:36:04.633Z,87.90
2022-11-05T08:38:32.653Z,87.24
2022-11-05T08:41:00.950Z,86.16
2022-11-05T08:43:28.873Z,85.85
2022-11-05T08:45:56.761Z,85.40
2022-11-05T08:48:24.748Z,84.30
2022-11-05T08:50:52.703Z,82.37
2022-11-05T08:53:20.696Z,81.20
2022-11-05T08:55:50.172Z,81.27
2022-11-05T08:58:20.230Z,81.41
2022-11-05T09:00:49.639Z,81.80
2022-11-05T09:03:18.045Z,81.91
2022-11-05T09:05:46.743Z,82.09
2022-11-05T09:08:17.101Z,81.92
2022-11-05T09:10:47.063Z,81.77
2022-11-05T09:13:19.391Z,81.89
2022-11-05T09:15:49.481Z,81.22
2022-11-05T09:18:19.035Z,81.40
2022-11-05T09:20:47.371Z,81.48
2022-11-05T09:23:16.273Z,81.30
2022-11-05T09:25:44.786Z,81.16
2022-11-05T09:28:18.329Z,81.58
2022-11-05T09:30:48.731Z,81.67
2022-11-05T09:33:19.000Z,81.86
2022-11-05T09:35:47.527Z,81.55
2022-11-05T09:38:15.450Z,81.44
2022-11-05T09:41:01.012Z,81.63
2022-11-05T09:43:44.686Z,82.03
2022-11-05T09:46:19.332Z,82.21
2022-11-05T09:48:52.358Z,82.53
2022-11-05T09:51:24.104Z,82.61
2022-11-05T09:53:53.582Z,82.74
2022-11-05T09:56:26.922Z,82.93
2022-11-05T09:59:00.537Z,82.10
2022-11-05T10:01:35.442Z,81.66
2022-11-05T10:04:13.165Z,81.57
2022-11-05T10:06:48.865Z,81.63
2022-11-05T10:09:28.141Z,81.21
2022-11-05T10:12:06.505Z,80.27
2022-11-05T10:14:40.531Z,78.98
2022-11-05T10:17:25.147Z,78.31
2022-11-05T10:20:20.670Z,77.21
2022-11-05T10:22:58.652Z,74.75
2022-11-05T10:25:32.054Z,75.67
2022-11-05T10:28:00.461Z,74.45
2022-11-05T10:30:28.379Z,75.13
2022-11-05T10:32:59.599Z,74.83
2022-11-05T10:35:30.809Z,74.78
2022-11-05T10:37:58.705Z,74.41
2022-11-05T10:40:38.762Z,74.45
2022-11-05T10:43:15.894Z,74.46
2022-11-05T10:45:59.775Z,75.07
2022-11-05T10:48:34.691Z,74.82
2022-11-05T10:51:07.206Z,73.63
2022-11-05T10:53:38.609Z,72.92
2022-11-05T10:56:32.480Z,73.52
2022-11-05T10:59:00.973Z,74.12
2022-11-05T11:01:30.380Z,74.18
2022-11-05T11:04:32.256Z,74.08
2022-11-05T11:07:03.723Z,73.10
2022-11-05T11:09:35.993Z,72.82
2022-11-05T11:12:21.746Z,72.39
2022-11-05T11:15:12.455Z,71.89
2022-11-05T11:17:40.854Z,71.97
2022-11-05T11:20:17.961Z,72.15
2022-11-05T11:23:13.000Z,72.52
2022-11-05T11:25:47.155Z,73.13
2022-11-05T11:28:20.251Z,73.36
2022-11-05T11:31:04.244Z,72.94
2022-11-05T11:33:33.841Z,72.62
2022-11-05T11:36:02.266Z,72.59
2022-11-05T11:38:33.038Z,72.71
2022-11-05T11:41:30.878Z,72.35
2022-11-05T11:44:11.513Z,72.21
2022-11-05T11:46:40.049Z,72.61
2022-11-05T11:49:32.688Z,72.28
2022-11-05T11:52:04.963Z,72.00
2022-11-05T11:54:35.070Z,71.47
2022-11-05T11:57:03.607Z,71.45
2022-11-05T12:00:01.816Z,71.12
2022-11-05T12:02:28.586Z,70.60
2022-11-05T12:05:10.388Z,70.76
2022-11-05T12:07:44.100Z,70.79
2022-11-05T12:10:18.148Z,71.46
2022-11-05T12:13:01.278Z,71.00
2022-11-05T12:15:52.039Z,71.11
2022-11-05T12:18:27.271Z,71.03
2022-11-05T12:21:07.438Z,70.92
2022-11-05T12:23:44.374Z,70.41
2022-11-05T12:26:22.313Z,70.84
2022-11-05T12:29:17.486Z,70.62
2022-11-05T12:32:01.567Z,70.17
2022-11-05T12:34:35.551Z,69.59
2022-11-05T12:37:24.938Z,69.44
2022-11-05T12:40:14.673Z,69.39
2022-11-05T12:43:12.110Z,69.30
2022-11-05T12:45:45.949Z,69.26
2022-11-05T12:48:57.109Z,69.06
2022-11-05T12:51:51.404Z,69.45
2022-11-05T12:54:36.157Z,69.25
2022-11-05T12:57:05.823Z,69.67
2022-11-05T12:59:43.888Z,69.93
2022-11-05T13:02:33.375Z,69.64
2022-11-05T13:05:16.479Z,69.41
2022-11-05T13:07:54.300Z,69.21
2022-11-05T13:10:28.174Z,69.13
2022-11-05T13:13:02.823Z,69.14
2022-11-05T13:15:40.231Z,69.57
2022-11-05T13:18:16.662Z,69.35
2022-11-05T13:20:51.220Z,69.05
2022-11-05T13:23:27.747Z,69.32
2022-11-05T13:26:02.532Z,69.63
2022-11-05T13:28:43.173Z,69.61
2022-11-05T13:31:15.110Z,69.55
2022-11-05T13:33:46.544Z,70.24
2022-11-05T13:36:44.767Z,70.72
2022-11-05T13:39:26.166Z,71.03
2022-11-05T13:42:13.082Z,71.31
2022-11-05T13:44:41.005Z,71.26
2022-11-05T13:47:30.663Z,71.53
2022-11-05T13:50:20.623Z,71.82
2022-11-05T13:53:26.296Z,71.95
2022-11-05T13:56:03.367Z,72.09
2022-11-05T13:59:10.066Z,72.24
2022-11-05T14:02:18.994Z,72.32
2022-11-05T14:05:00.704Z,72.46
2022-11-05T14:07:33.324Z,72.51
2022-11-05T14:10:16.666Z,72.62
2022-11-05T14:12:49.796Z,72.84
2022-11-05T14:15:22.178Z,72.80
2022-11-05T14:18:04.069Z,72.80
2022-11-05T14:20:31.957Z,72.85
2022-11-05T14:23:24.982Z,73.06
2022-11-05T14:26:22.531Z,73.24
2022-11-05T14:29:11.581Z,73.42
2022-11-05T14:32:07.679Z,73.61
2022-11-05T14:34:43.459Z,73.82
2022-11-05T14:37:11.889Z,73.99
2022-11-05T14:39:40.996Z,73.88
2022-11-05T14:42:18.302Z,73.86
2022-11-05T14:45:24.543Z,73.93
2022-11-05T14:48:05.320Z,73.79
2022-11-05T14:50:39.440Z,73.85
2022-11-05T14:53:37.573Z,74.03
2022-11-05T14:56:19.039Z,74.23
2022-11-05T14:58:46.973Z,74.48
2022-11-05T15:01:15.905Z,74.60
2022-11-05T15:04:00.995Z,74.77
2022-11-05T15:06:36.616Z,74.80
2022-11-05T15:09:16.164Z,74.82
2022-11-05T15:12:04.446Z,74.89
2022-11-05T15:14:42.419Z,74.82
2022-11-05T15:17:21.484Z,75.06
2022-11-05T15:19:50.744Z,75.20
2022-11-05T15:22:29.091Z,75.17
2022-11-05T15:24:57.418Z,75.19
2022-11-05T15:27:46.550Z,75.20
2022-11-05T15:30:23.028Z,75.37
2022-11-05T15:32:51.842Z,75.48
2022-11-05T15:35:23.589Z,75.78
2022-11-05T15:37:57.303Z,75.90
2022-11-05T15:40:33.212Z,76.09
2022-11-05T15:43:19.764Z,76.24
2022-11-05T15:46:04.963Z,76.29
2022-11-05T15:48:33.923Z,76.43
2022-11-05T15:51:02.209Z,76.59
2022-11-05T15:56:34.497Z,76.77
2022-11-05T15:59:16.111Z,76.94
2022-11-05T16:01:51.880Z,77.02
2022-11-05T16:04:24.679Z,77.15
2022-11-05T16:06:56.071Z,77.16
2022-11-05T16:09:25.958Z,77.26
2022-11-05T16:12:11.647Z,77.40
2022-11-05T16:14:40.494Z,77.59
2022-11-05T16:17:20.453Z,77.73
2022-11-05T16:19:49.616Z,77.86
2022-11-05T16:22:18.634Z,77.91
2022-11-05T16:24:47.223Z,77.84
2022-11-05T16:27:19.851Z,78.03
2022-11-05T16:29:56.547Z,78.13
2022-11-05T16:32:31.733Z,78.20
2022-11-05T16:35:03.020Z,78.15
2022-11-05T16:37:39.818Z,78.33
2022-11-05T16:40:15.455Z,78.49
2022-11-05T16:42:45.529Z,78.46
2022-11-05T16:45:15.528Z,78.40
2022-11-05T16:47:44.939Z,78.43
2022-11-05T16:50:15.060Z,78.33
2022-11-05T16:52:45.193Z,78.00
2022-11-05T16:55:14.913Z,77.67
2022-11-05T16:57:46.711Z,77.68
2022-11-05T17:00:16.927Z,77.86
2022-11-05T17:02:45.974Z,78.16
2022-11-05T17:05:30.965Z,78.18
2022-11-05T17:08:00.697Z,77.99
2022-11-05T17:10:28.764Z,78.10
2022-11-05T17:12:57.000Z,77.83
2022-11-05T17:15:29.638Z,77.83
2022-11-05T17:17:59.085Z,77.86
2022-11-05T17:20:36.482Z,77.84
2022-11-05T17:23:19.762Z,78.05
2022-11-05T17:26:09.812Z,78.05
2022-11-05T17:28:38.715Z,78.08
2022-11-05T17:31:09.171Z,78.10
2022-11-05T17:33:37.170Z,78.10
2022-11-05T17:36:10.740Z,78.20
2022-11-05T17:38:39.279Z,78.23
2022-11-05T17:41:15.797Z,78.36
2022-11-05T17:43:44.171Z,78.50
2022-11-05T17:46:14.631Z,78.52
2022-11-05T17:48:42.937Z,78.64
2022-11-05T17:51:15.202Z,78.71
2022-11-05T17:53:44.670Z,78.72
2022-11-05T17:56:22.156Z,78.73
2022-11-05T17:58:55.662Z,78.75
2022-11-05T18:01:30.330Z,78.77
2022-11-05T18:04:02.447Z,78.83
2022-11-05T18:06:35.338Z,78.77
2022-11-05T18:09:05.750Z,78.88
2022-11-05T18:11:35.527Z,78.89
2022-11-05T18:14:03.990Z,78.81
2022-11-05T18:16:32.166Z,78.82
2022-11-05T18:19:00.228Z,78.92
2022-11-05T18:21:28.396Z,79.00
2022-11-05T18:23:56.564Z,79.10
2022-11-05T18:26:24.453Z,79.08
2022-11-05T18:28:52.420Z,79.30
2022-11-05T18:31:21.913Z,79.37
2022-11-05T18:33:50.726Z,79.66
2022-11-05T18:36:21.204Z,79.74
2022-11-05T18:38:49.924Z,80.02
2022-11-05T18:41:19.169Z,80.11
2022-11-05T18:43:47.303Z,80.36
2022-11-05T18:46:43.101Z,80.40
2022-11-05T18:49:04.291Z,80.39
2022-11-05T18:51:32.728Z,80.40
2022-11-05T18:54:00.845Z,80.29
2022-11-05T18:56:28.957Z,80.29
2022-11-05T18:59:22.049Z,80.53
2022-11-05T19:01:45.599Z,80.67
2022-11-05T19:04:14.146Z,80.50
2022-11-05T19:06:42.687Z,80.10
2022-11-05T19:09:12.067Z,80.37
2022-11-05T19:11:41.030Z,80.57
2022-11-05T19:14:09.259Z,80.74
2022-11-05T19:16:37.282Z,80.69
2022-11-05T19:19:08.212Z,80.40
2022-11-05T19:21:36.075Z,80.11
2022-11-05T19:24:04.603Z,80.09
2022-11-05T19:26:32.923Z,80.15
2022-11-05T19:29:03.036Z,80.24
2022-11-05T19:31:32.388Z,80.05
2022-11-05T19:34:03.110Z,80.05
2022-11-05T19:36:32.888Z,80.08
2022-11-05T19:39:04.445Z,80.15
2022-11-05T19:41:32.284Z,80.02
2022-11-05T19:44:01.870Z,80.16
2022-11-05T19:46:31.046Z,80.19
2022-11-05T19:49:02.263Z,80.32
2022-11-05T19:51:31.817Z,80.46
2022-11-05T19:54:01.641Z,80.55
2022-11-05T19:56:32.130Z,80.69
2022-11-05T19:59:00.666Z,80.78
2022-11-05T20:01:30.068Z,80.93
2022-11-05T20:03:59.553Z,81.10
2022-11-05T20:06:32.070Z,81.18
2022-11-05T20:11:54.618Z,81.64
2022-11-05T20:14:24.894Z,81.73
2022-11-05T20:16:53.583Z,81.77
2022-11-05T20:19:22.813Z,81.77
2022-11-05T20:21:50.951Z,81.95
2022-11-05T20:24:24.694Z,82.04
2022-11-05T20:26:55.389Z,82.18
2022-11-05T20:29:29.093Z,82.54
2022-11-05T20:32:02.320Z,82.60
2022-11-05T20:34:32.071Z,82.76
2022-11-05T20:37:00.550Z,82.96
2022-11-05T20:39:28.426Z,83.12
2022-11-05T20:41:56.932Z,83.09
2022-11-05T20:44:24.899Z,83.22
2022-11-05T20:46:52.854Z,83.47
2022-11-05T20:49:25.166Z,83.49
2022-11-05T20:51:54.489Z,83.35
2022-11-05T20:54:22.616Z,83.16
2022-11-05T20:56:51.015Z,83.15
2022-11-05T20:59:19.586Z,83.20
2022-11-05T21:01:47.613Z,83.22
2022-11-05T21:04:15.621Z,83.08
2022-11-05T21:06:43.606Z,82.93
2022-11-05T21:09:11.508Z,83.06
2022-11-05T21:11:57.802Z,83.04
2022-11-05T21:14:25.704Z,83.00
2022-11-05T21:16:53.614Z,82.72
2022-11-05T21:19:23.929Z,82.72
2022-11-05T21:21:51.901Z,82.35
2022-11-05T21:24:19.819Z,82.31
2022-11-05T21:26:50.080Z,82.31
2022-11-05T21:29:19.149Z,82.30
2022-11-05T21:31:47.677Z,82.38
2022-11-05T21:34:16.944Z,82.33
2022-11-05T21:36:45.313Z,82.29
2022-11-05T21:39:14.048Z,82.27
2022-11-05T21:41:42.816Z,82.31
2022-11-05T21:44:11.284Z,82.38
2022-11-05T21:46:39.447Z,82.53
2022-11-05T21:49:07.455Z,82.62
2022-11-05T21:51:53.762Z,82.66
2022-11-05T21:54:40.098Z,82.79
2022-11-05T21:57:33.278Z,82.93
2022-11-05T22:00:03.852Z,83.01
2022-11-05T22:02:32.328Z,83.10
2022-11-05T22:05:00.479Z,83.15
2022-11-05T22:07:37.940Z,83.16
2022-11-05T22:10:15.809Z,83.16
2022-11-05T22:12:44.962Z,83.19
2022-11-05T22:15:13.782Z,83.22
2022-11-05T22:17:46.602Z,83.16
2022-11-05T22:20:15.937Z,83.28
2022-11-05T22:22:44.871Z,83.42
2022-11-05T22:25:14.414Z,83.65
2022-11-05T22:27:44.066Z,83.70
2022-11-05T22:30:13.788Z,83.85
2022-11-05T22:32:42.034Z,84.08
2022-11-05T22:35:10.429Z,84.30
2022-11-05T22:37:38.474Z,84.39
2022-11-05T22:40:06.941Z,84.54
2022-11-05T22:42:34.946Z,85.01
2022-11-05T22:45:03.319Z,85.07
2022-11-05T22:47:31.186Z,84.72
2022-11-05T22:49:59.412Z,84.92
2022-11-05T22:52:27.552Z,85.17
2022-11-05T22:54:55.556Z,85.23
2022-11-05T22:57:23.589Z,85.35
2022-11-05T22:59:51.532Z,85.37
2022-11-05T23:02:19.948Z,85.43
2022-11-05T23:04:49.620Z,85.22
2022-11-05T23:07:36.726Z,85.33
2022-11-05T23:10:23.381Z,85.58
2022-11-05T23:12:53.229Z,85.83
2022-11-05T23:15:39.475Z,85.82
2022-11-05T23:18:28.104Z,85.89
2022-11-05T23:21:17.953Z,86.14
2022-11-05T23:24:05.038Z,86.21
2022-11-05T23:26:52.208Z,86.12
2022-11-05T23:29:21.433Z,86.09
2022-11-05T23:32:09.017Z,86.05
2022-11-05T23:34:37.567Z,85.83
2022-11-05T23:37:25.246Z,86.13
2022-11-05T23:39:53.323Z,86.19
2022-11-05T23:42:40.225Z,86.09
2022-11-05T23:45:27.643Z,86.26
2022-11-05T23:48:14.787Z,86.36
2022-11-05T23:50:46.086Z,86.29
2022-11-05T23:53:14.045Z,86.38
2022-11-05T23:55:42.574Z,86.51
2022-11-05T23:58:11.032Z,86.45
